Time;durP1;ratioP1;P1;durP2;ratioP2;P2;SDS_P1;SDS_P2;PMS_P1;PMS_P2;Temp;Humidity;BMP_temperature;BMP_pressure;BME280_temperature;BME280_humidity;BME280_pressure;Samples;Min_cycle;Max_cycle;Signal;HPM_P1;HPM_P2
2022/03/31 00:01:07;;;;;;;15.27;13.63;;;;;;;2.70;85.05;97436.66;2111477;83;20990;-80
2022/03/31 00:04:08;;;;;;;15.83;13.90;;;;;;;2.60;84.76;97442.84;2121301;83;20994;-80
2022/03/31 00:07:09;;;;;;;14.77;13.37;;;;;;;2.53;84.79;97433.70;2125667;84;21011;-80
2022/03/31 00:10:09;;;;;;;14.10;12.33;;;;;;;2.54;85.56;97440.59;2119214;84;20970;-80
2022/03/31 00:13:10;;;;;;;13.27;11.97;;;;;;;2.52;85.50;97442.27;2119023;84;21454;-80
2022/03/31 00:16:11;;;;;;;13.03;11.70;;;;;;;2.44;84.47;97433.94;2117772;84;21065;-81
2022/03/31 00:19:12;;;;;;;14.23;11.57;;;;;;;2.38;84.75;97427.37;2119406;84;21353;-80
2022/03/31 00:22:13;;;;;;;13.17;11.70;;;;;;;2.31;84.88;97425.50;2111829;83;21050;-80
2022/03/31 00:25:13;;;;;;;12.70;11.40;;;;;;;2.26;84.71;97425.81;2111214;83;21369;-80
2022/03/31 00:28:14;;;;;;;12.77;11.50;;;;;;;2.19;84.75;97422.24;2119004;84;20995;-82
2022/03/31 00:31:14;;;;;;;12.03;10.93;;;;;;;2.13;84.83;97421.69;2112632;83;20955;-79
2022/03/31 00:34:15;;;;;;;11.30;10.20;;;;;;;2.09;84.45;97419.88;2112642;83;20975;-80
2022/03/31 00:37:15;;;;;;;12.27;11.10;;;;;;;2.06;84.54;97417.66;2118413;84;20951;-79
2022/03/31 00:40:16;;;;;;;11.47;10.33;;;;;;;2.06;84.58;97422.80;2112913;84;20979;-80
2022/03/31 00:43:17;;;;;;;11.63;10.10;;;;;;;2.01;84.21;97417.98;2116560;83;21315;-79
2022/03/31 00:46:17;;;;;;;12.80;11.53;;;;;;;1.97;84.47;97418.74;2114373;83;21061;-82
2022/03/31 00:49:17;;;;;;;;;;;;;;;;;;;;;
2022/03/31 00:52:18;;;;;;;12.47;11.17;;;;;;;1.91;85.02;97412.63;2117302;83;20997;-80
2022/03/31 00:55:19;;;;;;;13.37;11.97;;;;;;;1.88;84.84;97409.98;2117933;84;20972;-80
2022/03/31 00:58:19;;;;;;;12.43;11.23;;;;;;;1.89;84.54;97408.28;2118405;84;21025;-80
2022/03/31 01:01:20;;;;;;;12.00;10.67;;;;;;;1.89;84.62;97406.99;2110940;83;20983;-79
2022/03/31 01:04:20;;;;;;;13.00;11.80;;;;;;;1.88;84.98;97401.39;2111565;83;21333;-80
2022/03/31 01:07:20;;;;;;;12.60;11.40;;;;;;;1.86;85.20;97398.78;2119777;84;21394;-80
2022/03/31 01:10:21;;;;;;;14.53;12.67;;;;;;;1.86;84.37;97399.20;2115933;83;20987;-80
2022/03/31 01:13:21;;;;;;;12.37;11.17;;;;;;;1.87;84.38;97399.66;2115925;83;20946;-79
2022/03/31 01:16:22;;;;;;;12.83;11.63;;;;;;;1.88;84.16;97395.83;2117256;83;20983;-79
2022/03/31 01:19:22;;;;;;;13.03;11.83;;;;;;;1.90;84.22;97394.16;2117418;84;20935;-79
2022/03/31 01:22:23;;;;;;;13.27;11.97;;;;;;;1.90;84.54;97395.45;2117902;84;20991;-80
2022/03/31 01:25:24;;;;;;;12.93;10.93;;;;;;;1.86;84.14;97392.35;2111390;83;20998;-79
2022/03/31 01:28:24;;;;;;;12.67;11.40;;;;;;;1.87;84.30;97394.09;2119578;84;21015;-78
2022/03/31 01:31:25;;;;;;;11.70;10.60;;;;;;;1.88;84.17;97393.25;2111119;83;21041;-78
2022/03/31 01:34:25;;;;;;;13.87;12.50;;;;;;;1.89;84.45;97400.14;2119783;84;20970;-80
2022/03/31 01:37:26;;;;;;;13.47;12.17;;;;;;;1.87;84.58;97395.37;2114337;84;21358;-79
2022/03/31 01:40:28;;;;;;;13.10;11.47;;;;;;;1.93;84.34;97398.92;2088216;84;21002;-81
2022/03/31 01:43:29;;;;;;;11.93;10.80;;;;;;;1.97;84.18;97404.17;2119737;84;20978;-81
2022/03/31 01:46:29;;;;;;;13.80;12.50;;;;;;;2.00;84.08;97400.38;2118077;84;21112;-80
2022/03/31 01:49:30;;;;;;;12.33;11.13;;;;;;;1.99;84.02;97410.64;2119814;84;20970;-80
2022/03/31 01:52:31;;;;;;;12.70;11.40;;;;;;;1.97;83.89;97403.30;2111944;83;21006;-80
2022/03/31 01:55:31;;;;;;;12.33;11.23;;;;;;;1.99;83.91;97400.34;2119302;84;21051;-80
2022/03/31 01:58:32;;;;;;;11.37;10.33;;;;;;;1.99;83.96;97404.20;2119947;84;21025;-79
2022/03/31 02:01:32;;;;;;;11.73;10.63;;;;;;;1.95;83.68;97397.25;2110347;84;20915;-80
2022/03/31 02:04:33;;;;;;;13.43;11.17;;;;;;;1.94;83.65;97399.38;2121584;84;21370;-79
2022/03/31 02:07:34;;;;;;;10.73;9.73;;;;;;;1.92;84.28;97399.34;2114900;84;20998;-79
2022/03/31 02:10:35;;;;;;;10.73;9.73;;;;;;;1.95;84.00;97397.25;2125518;84;21030;-80
2022/03/31 02:13:36;;;;;;;11.30;10.30;;;;;;;1.96;83.94;97398.98;2113407;84;21023;-79
2022/03/31 02:16:36;;;;;;;11.23;10.20;;;;;;;1.95;83.79;97399.41;2118503;84;21030;-80
2022/03/31 02:19:37;;;;;;;9.97;8.97;;;;;;;1.99;83.88;97401.22;2111025;84;20944;-81
2022/03/31 02:22:38;;;;;;;10.83;9.83;;;;;;;1.97;83.83;97398.16;2115066;83;20935;-80
2022/03/31 02:25:39;;;;;;;10.30;9.20;;;;;;;1.95;84.11;97402.40;2120273;84;20994;-80
2022/03/31 02:28:39;;;;;;;8.63;7.83;;;;;;;1.91;84.03;97401.46;2111097;84;21016;-80
2022/03/31 02:31:40;;;;;;;8.10;7.40;;;;;;;1.89;84.18;97406.99;2118279;84;21013;-81
2022/03/31 02:34:40;;;;;;;8.10;7.40;;;;;;;1.94;84.19;97405.80;2112359;84;20986;-80
2022/03/31 02:37:41;;;;;;;8.07;7.27;;;;;;;1.93;84.22;97406.22;2119386;84;20931;-80
2022/03/31 02:40:42;;;;;;;6.77;6.07;;;;;;;1.97;84.21;97408.45;2118373;84;20963;-79
2022/03/31 02:43:42;;;;;;;6.47;5.87;;;;;;;2.01;84.12;97409.84;2118140;84;20939;-80
2022/03/31 02:46:43;;;;;;;6.10;5.60;;;;;;;2.02;83.83;97407.72;2125546;83;21018;-80
2022/03/31 02:49:44;;;;;;;8.30;7.23;;;;;;;2.03;83.93;97403.02;2125877;84;20963;-79
2022/03/31 02:56:04;;;;;;;6.70;6.10;;;;;;;2.03;84.43;97402.15;2125006;84;21002;-79
2022/03/31 02:59:04;;;;;;;5.93;5.47;;;;;;;1.98;84.21;97402.47;2124223;84;20939;-79
2022/03/31 03:02:05;;;;;;;6.37;5.87;;;;;;;1.92;84.79;97401.91;2122485;83;21326;-79
2022/03/31 03:05:05;;;;;;;6.10;5.60;;;;;;;1.86;84.84;97393.64;2121811;84;20928;-79
2022/03/31 03:08:06;;;;;;;7.10;6.50;;;;;;;1.84;84.96;97401.73;2111118;84;20943;-79
2022/03/31 03:11:08;;;;;;;7.87;7.17;;;;;;;1.83;85.36;97416.72;2112452;84;21007;-79
2022/03/31 03:14:13;;;;;;;7.87;7.17;;;;;;;1.83;85.58;97422.28;2120030;83;21374;-79
2022/03/31 03:17:14;;;;;;;8.20;7.23;;;;;;;1.79;85.18;97410.19;2120094;84;21035;-78
2022/03/31 03:20:16;;;;;;;9.27;8.03;;;;;;;1.77;84.97;97408.00;2100786;84;20986;-80
2022/03/31 03:23:17;;;;;;;8.20;7.50;;;;;;;1.79;85.16;97412.76;2106985;84;20994;-80
2022/03/31 03:26:17;;;;;;;8.60;7.90;;;;;;;1.84;85.19;97399.59;2119890;84;20978;-79
2022/03/31 03:29:18;;;;;;;9.07;8.20;;;;;;;1.83;85.28;97410.30;2117918;84;20943;-79
2022/03/31 03:32:18;;;;;;;10.20;9.07;;;;;;;1.83;85.07;97413.28;2110835;84;21023;-79
2022/03/31 03:35:19;;;;;;;9.40;8.47;;;;;;;1.80;85.70;97415.37;2116776;84;20997;-81
2022/03/31 03:38:19;;;;;;;8.50;7.80;;;;;;;1.80;85.14;97407.65;2117343;84;21014;-80
2022/03/31 03:41:20;;;;;;;10.27;9.30;;;;;;;1.82;85.23;97396.98;2121108;84;21029;-79
2022/03/31 03:44:20;;;;;;;8.83;8.03;;;;;;;1.83;85.38;97405.15;2092771;84;20999;-78
2022/03/31 03:47:21;;;;;;;8.73;8.03;;;;;;;1.83;85.11;97404.28;2091431;85;21096;-79
2022/03/31 03:50:21;;;;;;;8.60;7.83;;;;;;;1.82;85.07;97411.13;2090120;84;21018;-78
2022/03/31 03:53:22;;;;;;;9.47;8.57;;;;;;;1.84;85.69;97417.59;2108834;84;20976;-79
2022/03/31 03:56:23;;;;;;;9.53;8.63;;;;;;;1.82;85.55;97420.55;2117127;83;21477;-79
2022/03/31 03:59:24;;;;;;;9.73;8.90;;;;;;;1.80;85.90;97424.37;2106735;84;21061;-79
2022/03/31 04:02:26;;;;;;;13.83;9.90;;;;;;;1.74;85.70;97421.66;2107922;84;20998;-78
2022/03/31 04:05:27;;;;;;;9.40;8.60;;;;;;;1.75;86.04;97427.25;2118890;84;21018;-78
2022/03/31 04:08:29;;;;;;;9.97;9.07;;;;;;;1.75;85.70;97428.95;2105218;84;21069;-78
2022/03/31 04:11:30;;;;;;;14.23;10.27;;;;;;;1.74;86.00;97425.94;2116394;84;21069;-79
2022/03/31 04:14:30;;;;;;;10.20;9.10;;;;;;;1.72;85.56;97434.87;2117712;84;20942;-78
2022/03/31 04:17:31;;;;;;;10.67;9.60;;;;;;;1.75;85.82;97434.97;2117509;84;21128;-78
2022/03/31 04:20:31;;;;;;;10.63;9.63;;;;;;;1.78;85.60;97428.61;2106943;83;21042;-79
2022/03/31 04:23:32;;;;;;;9.77;8.50;;;;;;;1.78;85.37;97431.19;2116615;84;21017;-78
2022/03/31 04:26:32;;;;;;;10.33;9.33;;;;;;;1.77;85.14;97444.02;2106541;84;21066;-79
2022/03/31 04:29:32;;;;;;;10.07;9.17;;;;;;;1.76;85.31;97441.86;2107791;83;21452;-78
2022/03/31 04:32:33;;;;;;;10.47;9.57;;;;;;;1.81;85.08;97439.39;2107032;84;21445;-78
2022/03/31 04:35:36;;;;;;;8.70;7.93;;;;;;;1.83;85.14;97443.73;2108351;84;21018;-78
2022/03/31 04:38:36;;;;;;;9.07;8.37;;;;;;;1.85;84.80;97450.21;2089406;84;21121;-79
2022/03/31 04:41:36;;;;;;;9.13;8.40;;;;;;;1.86;85.17;97445.52;2098291;84;21002;-78
2022/03/31 04:44:40;;;;;;;9.43;8.53;;;;;;;1.84;84.74;97444.20;2089400;85;21744;-78
2022/03/31 04:47:40;;;;;;;9.23;8.33;;;;;;;1.85;84.69;97449.79;2107359;84;21481;-78
2022/03/31 04:50:41;;;;;;;9.43;8.63;;;;;;;1.87;84.68;97446.84;2117640;84;20998;-78
2022/03/31 04:53:41;;;;;;;9.00;8.20;;;;;;;1.87;84.90;97446.84;2116010;83;21062;-79
2022/03/31 04:56:43;;;;;;;10.23;9.33;;;;;;;1.88;84.70;97450.28;2098652;84;21393;-78
2022/03/31 04:59:44;;;;;;;8.80;8.10;;;;;;;1.91;84.79;97460.23;2098780;84;21047;-78
2022/03/31 05:02:44;;;;;;;9.60;8.80;;;;;;;1.95;84.60;97453.87;2115433;84;21007;-78
2022/03/31 05:05:45;;;;;;;11.97;10.77;;;;;;;1.97;84.32;97449.63;2095589;84;21017;-78
2022/03/31 05:08:46;;;;;;;50.20;31.03;;;;;;;1.95;84.12;97449.59;2087848;84;21283;-79
2022/03/31 05:11:46;;;;;;;55.97;35.20;;;;;;;1.94;84.15;97449.55;2104716;84;21379;-73
2022/03/31 05:14:47;;;;;;;67.90;40.53;;;;;;;1.98;84.33;97443.64;2107291;83;21477;-78
2022/03/31 05:17:47;;;;;;;51.93;37.57;;;;;;;2.03;84.34;97444.20;2097217;84;21524;-79
2022/03/31 05:20:48;;;;;;;46.77;34.33;;;;;;;2.03;84.03;97453.20;2098081;84;21405;-79
2022/03/31 05:23:49;;;;;;;46.73;37.57;;;;;;;2.03;83.95;97462.63;2114593;84;21354;-79
2022/03/31 05:26:53;;;;;;;28.00;23.40;;;;;;;2.06;84.11;97467.85;2117446;84;21180;-82
2022/03/31 05:29:54;;;;;;;29.37;23.87;;;;;;;2.11;84.09;97468.83;2110544;84;21042;-81
2022/03/31 05:32:54;;;;;;;18.20;16.20;;;;;;;2.11;83.97;97465.83;2098077;84;21013;-83
2022/03/31 05:35:55;;;;;;;13.30;12.10;;;;;;;2.22;84.18;97455.36;2097106;84;21007;-84
2022/03/31 05:38:56;;;;;;;13.57;12.27;;;;;;;2.24;83.96;97456.68;2117884;84;20982;-81
2022/03/31 05:41:57;;;;;;;11.57;10.50;;;;;;;2.24;84.02;97467.84;2110050;84;21046;-81
2022/03/31 05:44:57;;;;;;;13.60;11.87;;;;;;;2.20;83.79;97490.91;2116243;84;20998;-83
2022/03/31 05:47:58;;;;;;;14.03;12.57;;;;;;;2.17;84.18;97494.29;2109383;84;21014;-81
2022/03/31 05:50:58;;;;;;;52.93;22.83;;;;;;;2.16;84.12;97488.69;2098947;84;20981;-82
2022/03/31 05:54:01;;;;;;;16.57;13.47;;;;;;;2.19;84.05;97482.74;2097513;84;21349;-81
2022/03/31 05:57:01;;;;;;;14.57;12.20;;;;;;;2.17;84.23;97481.42;2108618;84;20990;-79
2022/03/31 06:00:03;;;;;;;41.87;31.53;;;;;;;2.23;84.31;97490.98;2089179;84;21058;-78
2022/03/31 06:03:04;;;;;;;44.93;29.93;;;;;;;2.30;84.48;97487.71;2105340;84;21047;-78
2022/03/31 06:06:04;;;;;;;20.13;15.77;;;;;;;2.34;84.04;97481.80;2104848;84;21414;-75
2022/03/31 06:09:05;;;;;;;60.10;32.93;;;;;;;2.36;83.89;97486.56;2104967;84;22001;-83
2022/03/31 06:12:06;;;;;;;246.13;101.23;;;;;;;2.38;83.75;97493.91;2109001;84;21026;-83
2022/03/31 06:15:06;;;;;;;90.13;48.00;;;;;;;2.41;83.81;97495.67;2107093;84;20987;-86
2022/03/31 06:18:07;;;;;;;145.63;94.53;;;;;;;2.41;83.50;97493.97;2106520;84;21030;-80
2022/03/31 06:21:07;;;;;;;79.50;55.87;;;;;;;2.41;83.58;97499.13;2117115;83;20986;-84
2022/03/31 06:24:08;;;;;;;38.53;30.07;;;;;;;2.48;83.72;97502.28;2110300;83;21271;-82
2022/03/31 06:30:11;;;;;;;17.20;15.50;;;;;;;2.63;83.72;97504.77;2092967;84;21644;-81
2022/03/31 06:33:12;;;;;;;16.83;15.13;;;;;;;2.62;83.18;97503.91;2113633;83;21142;-80
2022/03/31 06:39:15;;;;;;;16.70;15.00;;;;;;;2.61;83.24;97506.44;2092420;84;20982;-82
2022/03/31 06:42:16;;;;;;;13.50;12.10;;;;;;;2.61;83.20;97505.16;2117466;84;21018;-80
2022/03/31 06:45:16;;;;;;;12.40;10.87;;;;;;;2.52;83.19;97506.66;2115986;84;20994;-83
2022/03/31 06:48:17;;;;;;;13.47;12.17;;;;;;;2.45;83.40;97509.07;2116909;84;21057;-83
2022/03/31 06:51:17;;;;;;;14.53;13.00;;;;;;;2.41;83.90;97513.70;2115241;84;21013;-83
2022/03/31 06:54:18;;;;;;;15.77;13.77;;;;;;;2.41;83.71;97512.41;2110170;83;20974;-83
2022/03/31 06:57:19;;;;;;;17.20;14.90;;;;;;;2.45;83.71;97521.53;2109688;84;20967;-83
2022/03/31 07:00:20;;;;;;;16.37;14.13;;;;;;;2.47;83.64;97511.27;2114214;84;20974;-83
2022/03/31 07:03:21;;;;;;;15.07;13.57;;;;;;;2.47;83.89;97510.84;2116984;84;21054;-85
2022/03/31 07:06:23;;;;;;;15.30;13.03;;;;;;;2.45;84.06;97513.80;2119343;84;21373;-83
2022/03/31 07:09:23;;;;;;;14.83;13.23;;;;;;;2.50;83.99;97514.78;2115250;84;21030;-84
2022/03/31 07:12:24;;;;;;;14.73;13.23;;;;;;;2.56;83.70;97511.05;2100117;84;22097;-84
2022/03/31 07:15:24;;;;;;;15.93;14.07;;;;;;;2.56;83.29;97514.91;2116752;84;21414;-83
2022/03/31 07:18:25;;;;;;;15.13;13.53;;;;;;;2.55;83.46;97513.17;2100642;84;21453;-82
2022/03/31 07:21:26;;;;;;;16.87;15.17;;;;;;;2.61;83.54;97508.61;2122396;84;20982;-80
2022/03/31 07:24:26;;;;;;;19.60;17.20;;;;;;;2.63;83.18;97505.64;2111339;83;20990;-79
2022/03/31 07:27:27;;;;;;;33.00;26.47;;;;;;;2.69;83.00;97503.61;2118289;84;21022;-81
2022/03/31 07:30:27;;;;;;;26.43;17.83;;;;;;;2.68;82.93;97504.45;2118205;84;20972;-81
2022/03/31 07:33:28;;;;;;;27.27;22.27;;;;;;;2.76;83.07;97502.48;2118248;84;20990;-80
2022/03/31 07:36:29;;;;;;;21.97;19.07;;;;;;;2.91;83.05;97494.61;2109756;84;20946;-78
2022/03/31 07:39:29;;;;;;;16.13;14.50;;;;;;;3.02;83.03;97493.98;2116586;83;20958;-82
2022/03/31 07:42:30;;;;;;;15.47;13.73;;;;;;;3.13;82.57;97494.20;2111496;84;20983;-82
2022/03/31 07:45:30;;;;;;;12.60;11.30;;;;;;;3.17;82.08;97499.45;2114936;84;21008;-77
2022/03/31 07:48:31;;;;;;;14.70;13.03;;;;;;;3.24;82.13;97504.72;2116841;83;21073;-79
2022/03/31 07:51:31;;;;;;;12.57;11.37;;;;;;;3.28;82.29;97516.83;2123362;84;21045;-83
2022/03/31 07:54:32;;;;;;;12.03;10.93;;;;;;;3.28;81.62;97515.12;2123368;84;20962;-84
2022/03/31 07:57:33;;;;;;;13.07;11.87;;;;;;;3.26;82.02;97519.80;2109558;83;20976;-81
2022/03/31 08:00:34;;;;;;;11.37;10.27;;;;;;;3.32;81.95;97525.08;2117687;84;21081;-81
2022/03/31 08:03:34;;;;;;;10.27;9.30;;;;;;;3.36;81.41;97520.42;2115091;84;21034;-81
2022/03/31 08:06:35;;;;;;;11.13;9.40;;;;;;;3.36;81.50;97524.29;2116329;84;20985;-82
2022/03/31 08:09:35;;;;;;;11.00;10.00;;;;;;;3.41;81.69;97527.83;2107831;84;20975;-81
2022/03/31 08:12:36;;;;;;;10.97;9.93;;;;;;;3.42;81.38;97526.98;2119183;84;21034;-83
2022/03/31 08:15:37;;;;;;;11.93;10.30;;;;;;;3.43;81.45;97528.73;2107675;84;21002;-84
2022/03/31 08:18:37;;;;;;;11.63;10.53;;;;;;;3.41;81.47;97527.83;2114141;84;21069;-84
2022/03/31 08:21:38;;;;;;;10.43;9.43;;;;;;;3.37;81.49;97537.64;2108196;84;21007;-83
2022/03/31 08:24:38;;;;;;;11.10;10.00;;;;;;;3.34;81.41;97541.03;2096420;84;20959;-83
2022/03/31 08:27:39;;;;;;;14.10;11.53;;;;;;;3.31;81.44;97540.97;2116199;84;20994;-84
2022/03/31 08:30:39;;;;;;;13.50;11.13;;;;;;;3.25;81.52;97542.14;2090820;84;21006;-83
2022/03/31 08:33:40;;;;;;;30.90;16.77;;;;;;;3.31;81.81;97555.58;2088988;84;21684;-81
2022/03/31 08:36:41;;;;;;;26.20;16.23;;;;;;;3.36;81.74;97552.25;2114169;84;21046;-81
2022/03/31 08:39:41;;;;;;;19.27;13.27;;;;;;;3.48;81.55;97559.38;2091590;84;21436;-81
2022/03/31 08:42:42;;;;;;;28.57;14.90;;;;;;;3.53;81.47;97556.47;2105803;84;21039;-81
2022/03/31 08:45:43;;;;;;;27.93;14.90;;;;;;;3.60;81.73;97557.45;2109062;84;21002;-81
2022/03/31 08:48:43;;;;;;;30.30;17.30;;;;;;;3.62;81.18;97560.51;2109691;84;21049;-80
2022/03/31 08:51:44;;;;;;;21.03;14.70;;;;;;;3.69;81.39;97567.52;2090308;84;21057;-81
2022/03/31 08:57:46;;;;;;;18.10;13.73;;;;;;;3.71;80.51;97564.97;2090079;84;20982;-80
2022/03/31 09:00:47;;;;;;;13.17;11.77;;;;;;;3.71;80.96;97572.71;2102138;84;21053;-81
2022/03/31 09:03:47;;;;;;;13.87;12.33;;;;;;;3.66;80.15;97570.05;2100968;84;21025;-80
2022/03/31 09:06:49;;;;;;;14.23;12.67;;;;;;;3.58;80.83;97565.58;2101316;84;21376;-80
2022/03/31 09:09:52;;;;;;;16.57;13.57;;;;;;;3.56;80.85;97561.69;2101367;84;21307;-81
2022/03/31 09:12:52;;;;;;;27.87;19.27;;;;;;;3.58;80.82;97557.42;2096883;84;21374;-81
2022/03/31 09:15:52;;;;;;;14.53;12.93;;;;;;;3.66;81.06;97564.02;2118134;83;21026;-82
2022/03/31 09:18:53;;;;;;;13.70;12.20;;;;;;;3.63;80.12;97571.28;2116515;83;21066;-81
2022/03/31 09:21:53;;;;;;;17.17;14.43;;;;;;;3.60;80.82;97572.52;2121966;84;21388;-83
2022/03/31 09:24:54;;;;;;;16.57;13.30;;;;;;;3.54;80.85;97574.11;2123809;84;20989;-81
2022/03/31 09:27:55;;;;;;;16.07;13.33;;;;;;;3.50;80.73;97574.47;2123621;84;21006;-81
2022/03/31 09:30:56;;;;;;;14.23;12.87;;;;;;;3.53;81.01;97566.79;2123463;84;21177;-77
2022/03/31 09:33:56;;;;;;;14.80;13.30;;;;;;;3.51;80.92;97559.02;2106780;84;21037;-81
2022/03/31 09:36:57;;;;;;;13.57;12.27;;;;;;;3.54;80.45;97565.08;2125175;84;20989;-80
2022/03/31 09:39:57;;;;;;;13.27;11.97;;;;;;;3.55;80.56;97564.23;2116125;84;21001;-82
2022/03/31 09:42:58;;;;;;;16.07;13.93;;;;;;;3.54;80.79;97567.66;2116293;84;21041;-83
2022/03/31 09:45:58;;;;;;;16.23;14.47;;;;;;;3.52;80.78;97572.79;2110222;84;21017;-80
2022/03/31 09:48:59;;;;;;;21.13;17.60;;;;;;;3.50;80.83;97570.18;2107209;84;20974;-81
2022/03/31 09:52:00;;;;;;;17.50;15.37;;;;;;;3.55;81.05;97575.42;2124021;84;21002;-81
2022/03/31 09:55:01;;;;;;;18.93;16.07;;;;;;;3.54;80.73;97572.81;2110769;84;21078;-81
2022/03/31 09:58:02;;;;;;;16.73;14.97;;;;;;;3.56;80.38;97577.16;2121364;84;20994;-82
2022/03/31 10:01:02;;;;;;;17.47;15.30;;;;;;;3.58;80.27;97570.33;2115630;84;21097;-82
2022/03/31 10:04:02;;;;;;;16.77;14.97;;;;;;;3.53;80.59;97573.66;2115197;84;20974;-81
2022/03/31 10:07:04;;;;;;;16.83;14.97;;;;;;;3.52;80.41;97568.92;2111373;84;20978;-81
2022/03/31 10:10:05;;;;;;;16.93;14.37;;;;;;;3.51;80.66;97576.20;2109782;84;21061;-82
2022/03/31 10:13:05;;;;;;;21.17;15.90;;;;;;;3.52;80.39;97574.08;2115092;84;21041;-80
2022/03/31 10:16:06;;;;;;;18.97;15.70;;;;;;;3.56;80.82;97590.06;2123363;84;21048;-82
2022/03/31 10:19:06;;;;;;;22.20;17.13;;;;;;;3.54;80.18;97582.72;2094922;84;20968;-80
2022/03/31 10:22:07;;;;;;;22.73;16.90;;;;;;;3.50;80.49;97583.50;2090405;84;21014;-81
2022/03/31 10:25:07;;;;;;;18.93;15.57;;;;;;;3.47;80.45;97583.44;2092561;85;21010;-81
2022/03/31 10:28:08;;;;;;;17.37;15.67;;;;;;;3.94;81.12;97579.58;2091250;85;21017;-81
2022/03/31 10:31:09;;;;;;;17.90;15.50;;;;;;;3.83;79.74;97580.25;2092015;85;21045;-81
2022/03/31 10:34:09;;;;;;;19.07;16.27;;;;;;;3.69;79.66;97580.42;2092531;84;21382;-81
2022/03/31 10:37:10;;;;;;;17.90;15.23;;;;;;;3.63;80.31;97574.28;2093528;84;21011;-81
2022/03/31 10:40:10;;;;;;;20.17;17.17;;;;;;;3.59;80.02;97573.35;2089644;85;20960;-81
2022/03/31 10:43:11;;;;;;;22.40;16.00;;;;;;;3.60;80.15;97562.61;2090268;85;21481;-79
2022/03/31 10:46:11;;;;;;;23.10;17.27;;;;;;;3.55;80.31;97562.53;2091234;84;21013;-82
2022/03/31 10:49:13;;;;;;;19.83;17.17;;;;;;;3.56;80.30;97549.20;2089550;85;21014;-81
2022/03/31 10:52:16;;;;;;;18.20;16.17;;;;;;;3.53;80.14;97546.14;2090973;85;21129;-82
2022/03/31 10:55:19;;;;;;;21.87;17.03;;;;;;;3.55;80.04;97543.17;2092877;84;21021;-81
2022/03/31 10:58:18;;;;;;;19.27;16.70;;;;;;;3.61;80.02;97549.73;2089266;84;21062;-81
2022/03/31 11:01:18;;;;;;;17.97;16.07;;;;;;;3.55;80.11;97545.75;2089920;85;21069;-80
2022/03/31 11:04:19;;;;;;;18.13;15.70;;;;;;;3.55;80.34;97541.89;2091635;85;20987;-80
2022/03/31 11:07:20;;;;;;;21.10;17.43;;;;;;;3.57;79.81;97537.63;2089773;84;22008;-80
2022/03/31 11:10:21;;;;;;;21.73;18.07;;;;;;;3.59;80.36;97531.20;2091060;84;21010;-80
2022/03/31 11:13:21;;;;;;;21.00;16.97;;;;;;;3.54;79.99;97536.70;2093094;84;21038;-80
2022/03/31 11:16:22;;;;;;;22.17;17.50;;;;;;;3.54;79.62;97534.12;2089921;85;21520;-80
2022/03/31 11:19:22;;;;;;;21.53;17.10;;;;;;;3.42;79.42;97533.44;2119310;84;21544;-81
2022/03/31 11:22:26;;;;;;;23.07;16.53;;;;;;;3.38;79.99;97535.51;2124609;84;21066;-80
2022/03/31 11:25:27;;;;;;;21.87;16.50;;;;;;;3.41;80.18;97532.98;2112143;83;21053;-80
2022/03/31 11:28:28;;;;;;;25.07;18.40;;;;;;;3.42;80.36;97539.89;2118782;83;21002;-83
2022/03/31 11:31:28;;;;;;;25.37;18.30;;;;;;;3.37;80.08;97544.09;2118189;84;21085;-82
2022/03/31 11:34:29;;;;;;;23.60;17.27;;;;;;;3.34;80.14;97537.16;2107919;83;20970;-81
2022/03/31 11:37:29;;;;;;;31.57;17.27;;;;;;;3.29;80.56;97532.75;2111553;84;21033;-82
2022/03/31 11:40:31;;;;;;;20.80;15.53;;;;;;;3.25;80.79;97532.25;2092701;84;21314;-80
2022/03/31 11:43:32;;;;;;;27.33;16.77;;;;;;;3.25;80.69;97539.56;2117678;83;21094;-81
2022/03/31 11:46:33;;;;;;;24.13;18.70;;;;;;;3.20;81.00;97541.18;2112897;84;20999;-82
2022/03/31 11:49:34;;;;;;;24.40;18.30;;;;;;;3.14;81.08;97541.06;2113034;84;21014;-80
2022/03/31 11:52:35;;;;;;;23.03;17.57;;;;;;;3.18;81.10;97543.73;2122600;83;21010;-81
2022/03/31 11:55:36;;;;;;;27.23;18.53;;;;;;;3.19;81.00;97548.05;2121933;84;21041;-81
2022/03/31 11:58:36;;;;;;;28.20;21.17;;;;;;;3.18;80.75;97549.30;2111052;84;21856;-80
2022/03/31 12:01:37;;;;;;;27.23;18.93;;;;;;;3.16;80.75;97547.11;2116050;83;21466;-81
2022/03/31 12:04:38;;;;;;;27.37;19.43;;;;;;;3.15;80.96;97546.25;2111428;84;21067;-82
2022/03/31 12:07:39;;;;;;;24.50;18.03;;;;;;;3.14;81.13;97544.92;2115804;83;21077;-82
2022/03/31 12:10:39;;;;;;;24.57;17.37;;;;;;;3.11;80.90;97552.18;2115056;84;21010;-81
2022/03/31 12:13:40;;;;;;;26.03;18.70;;;;;;;3.06;81.38;97548.64;2116259;84;20991;-82
2022/03/31 12:16:40;;;;;;;30.67;22.60;;;;;;;3.11;81.50;97557.34;2121506;83;20973;-81
2022/03/31 12:19:41;;;;;;;24.00;16.73;;;;;;;3.07;81.48;97561.11;2113419;84;21038;-81
2022/03/31 12:22:41;;;;;;;24.97;17.93;;;;;;;2.98;81.35;97551.48;2114503;83;21026;-81
2022/03/31 12:25:42;;;;;;;22.30;17.80;;;;;;;3.01;81.65;97541.23;2117014;83;21727;-78
2022/03/31 12:28:42;;;;;;;41.07;20.63;;;;;;;3.06;81.66;97538.33;2115305;84;21421;-81
2022/03/31 12:31:44;;;;;;;21.27;16.37;;;;;;;3.02;81.63;97537.81;2117034;84;21429;-81
2022/03/31 12:34:45;;;;;;;25.87;16.83;;;;;;;3.05;81.53;97546.90;2108261;84;20974;-82
2022/03/31 12:37:47;;;;;;;34.37;20.10;;;;;;;3.03;81.53;97542.55;2107246;84;21377;-80
2022/03/31 12:40:48;;;;;;;27.47;16.93;;;;;;;3.01;81.70;97533.91;2115946;84;21053;-82
2022/03/31 12:43:49;;;;;;;21.50;16.43;;;;;;;3.00;81.69;97529.18;2116201;84;21037;-82
2022/03/31 12:46:50;;;;;;;28.73;18.07;;;;;;;2.97;81.69;97533.41;2112190;84;21066;-81
2022/03/31 12:49:50;;;;;;;21.70;16.27;;;;;;;3.00;81.77;97532.17;2109565;83;21385;-82
2022/03/31 12:52:51;;;;;;;25.33;17.87;;;;;;;2.97;81.68;97528.25;2122217;84;20997;-82
2022/03/31 12:55:52;;;;;;;23.57;17.53;;;;;;;2.99;81.81;97532.59;2118286;84;21333;-82
2022/03/31 12:58:53;;;;;;;21.10;15.90;;;;;;;3.01;81.59;97529.63;2109148;84;21262;-81
2022/03/31 13:01:54;;;;;;;22.37;16.50;;;;;;;3.01;81.64;97523.19;2109981;83;21033;-81
2022/03/31 13:04:54;;;;;;;26.00;18.07;;;;;;;2.99;82.05;97523.99;2114895;84;21410;-82
2022/03/31 13:07:55;;;;;;;26.13;16.50;;;;;;;2.99;81.70;97526.16;2116712;83;21269;-83
2022/03/31 13:10:56;;;;;;;24.33;17.17;;;;;;;3.05;81.74;97517.67;2119536;84;21014;-83
2022/03/31 13:13:57;;;;;;;36.80;22.30;;;;;;;3.06;81.62;97508.68;2116956;84;20990;-82
2022/03/31 13:16:57;;;;;;;24.83;17.53;;;;;;;3.04;81.79;97510.36;2110464;83;21010;-83
2022/03/31 13:19:58;;;;;;;29.10;19.33;;;;;;;3.07;81.91;97517.28;2116787;84;21394;-83
2022/03/31 13:22:59;;;;;;;28.20;18.13;;;;;;;3.05;81.57;97510.80;2110418;83;21324;-82
2022/03/31 13:25:59;;;;;;;21.57;15.87;;;;;;;3.10;81.46;97513.05;2118283;84;20978;-82
2022/03/31 13:29:00;;;;;;;28.63;20.53;;;;;;;3.14;81.57;97512.70;2111221;84;21005;-82
2022/03/31 13:32:00;;;;;;;25.63;17.97;;;;;;;3.19;81.38;97504.21;2114741;84;21053;-81
2022/03/31 13:35:01;;;;;;;24.47;18.47;;;;;;;3.22;81.30;97510.27;2114668;84;21006;-80
2022/03/31 13:38:01;;;;;;;28.97;17.53;;;;;;;3.22;81.30;97508.55;2113767;84;20994;-81
2022/03/31 13:41:02;;;;;;;25.73;18.30;;;;;;;3.23;81.25;97496.53;2116944;83;21077;-79
2022/03/31 13:44:02;;;;;;;32.60;19.67;;;;;;;3.26;81.32;97500.45;2111934;84;21378;-82
2022/03/31 13:47:03;;;;;;;25.07;17.90;;;;;;;3.25;81.18;97490.56;2116703;84;20990;-82
2022/03/31 13:50:04;;;;;;;59.57;18.60;;;;;;;3.28;80.97;97489.75;2111873;84;21014;-80
2022/03/31 13:56:23;;;;;;;22.03;15.73;;;;;;;3.18;81.24;97480.98;2113325;84;21029;-82
2022/03/31 14:02:44;;;;;;;47.30;24.10;;;;;;;3.12;81.32;97473.13;2124684;84;21141;-80
2022/03/31 14:05:46;;;;;;;28.87;17.43;;;;;;;3.15;81.79;97470.60;2109990;83;21030;-81
2022/03/31 14:08:46;;;;;;;28.17;17.80;;;;;;;3.16;81.43;97462.89;2117404;84;21023;-82
2022/03/31 14:11:47;;;;;;;25.00;17.63;;;;;;;3.19;81.16;97459.08;2116605;84;21393;-81
2022/03/31 14:14:47;;;;;;;25.40;16.47;;;;;;;3.17;81.26;97455.61;2114386;84;21436;-80
2022/03/31 14:17:48;;;;;;;26.97;18.67;;;;;;;3.14;81.28;97453.39;2110873;84;21011;-82
2022/03/31 14:20:48;;;;;;;78.10;45.57;;;;;;;3.13;81.35;97449.08;2125208;84;20951;-82
2022/03/31 14:23:49;;;;;;;37.07;22.33;;;;;;;3.17;81.38;97447.87;2125114;84;21089;-85